Airport View

Enter AWOS ICAO identifier for current METAR.

ex. KFNL

KSEM 022335Z AUTO 15008KT 9SM CLR 31/21 A3006 RMK AO2

2 Jun 2020 23:21

Frequency: 119.15

Phone: (334) 872-9090

Other Area AWOS: KA08 - K1A9 - KMGM - KMXF

TAF AMD KMGM 021955Z 0220/0318 14007KT P6SM SCT025 BKN045 FM022100 14006KT P6SM VCTS BKN050CB FM030000 VRB03KT P6SM BKN100 FM031500 14005KT P6SM BKN050